sensor_id;sensor_type;location;lat;lon;timestamp;temperature;humidity
43183;DHT22;28802;38.578;-0.066;2023-06-22T00:02:17;25.00;99.90
43183;DHT22;28802;38.578;-0.066;2023-06-22T00:04:43;25.00;99.90
43183;DHT22;28802;38.578;-0.066;2023-06-22T00:07:09;25.00;99.90
43183;DHT22;28802;38.578;-0.066;2023-06-22T00:09:36;25.00;99.90
43183;DHT22;28802;38.578;-0.066;2023-06-22T00:12:02;25.00;99.90
43183;DHT22;28802;38.578;-0.066;2023-06-22T00:14:28;25.00;99.90
43183;DHT22;28802;38.578;-0.066;2023-06-22T00:16:54;25.00;99.90
43183;DHT22;28802;38.578;-0.066;2023-06-22T00:19:23;24.90;99.90
43183;DHT22;28802;38.578;-0.066;2023-06-22T00:21:52;24.80;99.90
43183;DHT22;28802;38.578;-0.066;2023-06-22T00:24:19;24.80;99.90
43183;DHT22;28802;38.578;-0.066;2023-06-22T00:26:45;24.80;99.90
43183;DHT22;28802;38.578;-0.066;2023-06-22T00:29:12;24.80;99.90
43183;DHT22;28802;38.578;-0.066;2023-06-22T00:31:38;24.80;99.90
43183;DHT22;28802;38.578;-0.066;2023-06-22T00:34:04;24.80;99.90
43183;DHT22;28802;38.578;-0.066;2023-06-22T00:36:33;24.70;99.90
43183;DHT22;28802;38.578;-0.066;2023-06-22T00:38:59;24.80;99.90
43183;DHT22;28802;38.578;-0.066;2023-06-22T00:41:24;24.70;99.90
43183;DHT22;28802;38.578;-0.066;2023-06-22T00:43:54;24.80;99.90
43183;DHT22;28802;38.578;-0.066;2023-06-22T00:46:21;24.60;99.90
43183;DHT22;28802;38.578;-0.066;2023-06-22T00:48:49;24.60;99.90
43183;DHT22;28802;38.578;-0.066;2023-06-22T00:51:15;24.60;99.90
43183;DHT22;28802;38.578;-0.066;2023-06-22T00:53:41;24.60;99.90
43183;DHT22;28802;38.578;-0.066;2023-06-22T00:56:10;24.60;99.90
43183;DHT22;28802;38.578;-0.066;2023-06-22T00:58:39;24.50;99.90
43183;DHT22;28802;38.578;-0.066;2023-06-22T01:01:07;24.50;99.90
43183;DHT22;28802;38.578;-0.066;2023-06-22T01:03:33;24.40;99.90
43183;DHT22;28802;38.578;-0.066;2023-06-22T01:06:10;24.40;99.90
43183;DHT22;28802;38.578;-0.066;2023-06-22T01:08:53;24.40;99.90
43183;DHT22;28802;38.578;-0.066;2023-06-22T01:11:28;24.40;99.90
43183;DHT22;28802;38.578;-0.066;2023-06-22T01:14:20;24.30;99.90
43183;DHT22;28802;38.578;-0.066;2023-06-22T01:16:49;24.30;99.90
43183;DHT22;28802;38.578;-0.066;2023-06-22T01:21:46;24.30;99.90
43183;DHT22;28802;38.578;-0.066;2023-06-22T01:24:26;24.30;99.90
43183;DHT22;28802;38.578;-0.066;2023-06-22T01:29:40;24.20;99.90
43183;DHT22;28802;38.578;-0.066;2023-06-22T01:32:09;24.20;99.90
43183;DHT22;28802;38.578;-0.066;2023-06-22T01:34:37;24.20;99.90
43183;DHT22;28802;38.578;-0.066;2023-06-22T01:37:06;24.10;99.90
43183;DHT22;28802;38.578;-0.066;2023-06-22T01:39:33;24.10;99.90
43183;DHT22;28802;38.578;-0.066;2023-06-22T01:42:00;24.00;99.90
43183;DHT22;28802;38.578;-0.066;2023-06-22T01:44:26;24.10;99.90
43183;DHT22;28802;38.578;-0.066;2023-06-22T01:46:52;24.00;99.90
43183;DHT22;28802;38.578;-0.066;2023-06-22T01:49:19;23.90;99.90
43183;DHT22;28802;38.578;-0.066;2023-06-22T01:51:45;23.90;99.90
43183;DHT22;28802;38.578;-0.066;2023-06-22T01:54:11;23.90;99.90
43183;DHT22;28802;38.578;-0.066;2023-06-22T01:56:39;23.80;99.90
43183;DHT22;28802;38.578;-0.066;2023-06-22T01:59:25;23.80;99.90
43183;DHT22;28802;38.578;-0.066;2023-06-22T02:02:02;23.70;99.90
43183;DHT22;28802;38.578;-0.066;2023-06-22T02:04:46;23.70;99.90
43183;DHT22;28802;38.578;-0.066;2023-06-22T02:07:15;23.70;99.90
43183;DHT22;28802;38.578;-0.066;2023-06-22T02:09:47;23.70;99.90
43183;DHT22;28802;38.578;-0.066;2023-06-22T02:12:18;23.60;99.90
43183;DHT22;28802;38.578;-0.066;2023-06-22T02:14:45;23.60;99.90
43183;DHT22;28802;38.578;-0.066;2023-06-22T02:17:12;23.50;99.90
43183;DHT22;28802;38.578;-0.066;2023-06-22T02:19:41;23.50;99.90
43183;DHT22;28802;38.578;-0.066;2023-06-22T02:22:07;23.50;99.90
43183;DHT22;28802;38.578;-0.066;2023-06-22T02:24:33;23.50;99.90
43183;DHT22;28802;38.578;-0.066;2023-06-22T02:27:00;23.50;99.90
43183;DHT22;28802;38.578;-0.066;2023-06-22T02:29:27;23.50;99.90
43183;DHT22;28802;38.578;-0.066;2023-06-22T02:31:53;23.50;99.90
43183;DHT22;28802;38.578;-0.066;2023-06-22T02:34:20;23.40;99.90
43183;DHT22;28802;38.578;-0.066;2023-06-22T02:36:47;23.30;99.90
43183;DHT22;28802;38.578;-0.066;2023-06-22T02:39:21;23.30;99.90
43183;DHT22;28802;38.578;-0.066;2023-06-22T02:41:53;23.30;99.90
43183;DHT22;28802;38.578;-0.066;2023-06-22T02:44:21;23.30;99.90
43183;DHT22;28802;38.578;-0.066;2023-06-22T02:46:48;23.40;99.90
43183;DHT22;28802;38.578;-0.066;2023-06-22T02:49:15;23.30;99.90
43183;DHT22;28802;38.578;-0.066;2023-06-22T02:51:45;23.30;99.90
43183;DHT22;28802;38.578;-0.066;2023-06-22T02:54:13;23.30;99.90
43183;DHT22;28802;38.578;-0.066;2023-06-22T02:56:39;23.40;99.90
43183;DHT22;28802;38.578;-0.066;2023-06-22T02:59:06;23.40;99.90
43183;DHT22;28802;38.578;-0.066;2023-06-22T03:01:38;23.40;99.90
43183;DHT22;28802;38.578;-0.066;2023-06-22T03:04:11;23.40;99.90
43183;DHT22;28802;38.578;-0.066;2023-06-22T03:06:36;23.40;99.90
43183;DHT22;28802;38.578;-0.066;2023-06-22T03:09:04;23.40;99.90
43183;DHT22;28802;38.578;-0.066;2023-06-22T03:11:33;23.40;99.90
43183;DHT22;28802;38.578;-0.066;2023-06-22T03:14:01;23.40;99.90
43183;DHT22;28802;38.578;-0.066;2023-06-22T03:16:28;23.30;99.90
43183;DHT22;28802;38.578;-0.066;2023-06-22T03:18:57;23.30;99.90
43183;DHT22;28802;38.578;-0.066;2023-06-22T03:21:25;23.20;99.90
43183;DHT22;28802;38.578;-0.066;2023-06-22T03:23:51;23.30;99.90
43183;DHT22;28802;38.578;-0.066;2023-06-22T03:26:18;23.30;99.90
43183;DHT22;28802;38.578;-0.066;2023-06-22T03:28:44;23.20;99.90
43183;DHT22;28802;38.578;-0.066;2023-06-22T03:31:10;23.20;99.90
43183;DHT22;28802;38.578;-0.066;2023-06-22T03:33:39;23.20;99.90
43183;DHT22;28802;38.578;-0.066;2023-06-22T03:36:05;23.20;99.90
43183;DHT22;28802;38.578;-0.066;2023-06-22T03:38:32;23.20;99.90
43183;DHT22;28802;38.578;-0.066;2023-06-22T03:40:58;23.20;99.90
43183;DHT22;28802;38.578;-0.066;2023-06-22T03:43:25;23.20;99.90
43183;DHT22;28802;38.578;-0.066;2023-06-22T03:45:50;23.10;99.90
43183;DHT22;28802;38.578;-0.066;2023-06-22T03:48:16;23.10;99.90
43183;DHT22;28802;38.578;-0.066;2023-06-22T03:50:42;23.10;99.90
43183;DHT22;28802;38.578;-0.066;2023-06-22T03:53:09;23.10;99.90
43183;DHT22;28802;38.578;-0.066;2023-06-22T03:55:36;23.00;99.90
43183;DHT22;28802;38.578;-0.066;2023-06-22T03:58:02;23.00;99.90
43183;DHT22;28802;38.578;-0.066;2023-06-22T04:00:32;23.10;99.90
43183;DHT22;28802;38.578;-0.066;2023-06-22T04:02:58;23.10;99.90
43183;DHT22;28802;38.578;-0.066;2023-06-22T04:05:24;23.00;99.90
43183;DHT22;28802;38.578;-0.066;2023-06-22T04:07:50;23.00;99.90
43183;DHT22;28802;38.578;-0.066;2023-06-22T04:10:16;23.00;99.90
43183;DHT22;28802;38.578;-0.066;2023-06-22T04:12:42;23.00;99.90
43183;DHT22;28802;38.578;-0.066;2023-06-22T04:15:08;22.90;99.90
43183;DHT22;28802;38.578;-0.066;2023-06-22T04:17:35;22.90;99.90
43183;DHT22;28802;38.578;-0.066;2023-06-22T04:20:01;23.00;99.90
43183;DHT22;28802;38.578;-0.066;2023-06-22T04:22:28;22.90;99.90
43183;DHT22;28802;38.578;-0.066;2023-06-22T04:24:53;23.00;99.90
43183;DHT22;28802;38.578;-0.066;2023-06-22T04:27:20;22.90;99.90
43183;DHT22;28802;38.578;-0.066;2023-06-22T04:29:48;22.90;99.90
43183;DHT22;28802;38.578;-0.066;2023-06-22T04:32:15;22.90;99.90
43183;DHT22;28802;38.578;-0.066;2023-06-22T04:34:42;22.80;99.90
43183;DHT22;28802;38.578;-0.066;2023-06-22T04:37:08;22.80;99.90
43183;DHT22;28802;38.578;-0.066;2023-06-22T04:39:34;22.90;99.90
43183;DHT22;28802;38.578;-0.066;2023-06-22T04:41:59;22.90;99.90
43183;DHT22;28802;38.578;-0.066;2023-06-22T04:44:27;22.90;99.90
43183;DHT22;28802;38.578;-0.066;2023-06-22T04:46:58;22.90;99.90
43183;DHT22;28802;38.578;-0.066;2023-06-22T04:49:30;22.90;99.90
43183;DHT22;28802;38.578;-0.066;2023-06-22T04:52:08;22.90;99.90
43183;DHT22;28802;38.578;-0.066;2023-06-22T04:54:35;23.00;99.90
43183;DHT22;28802;38.578;-0.066;2023-06-22T04:57:03;22.90;99.90
43183;DHT22;28802;38.578;-0.066;2023-06-22T04:59:31;22.90;99.90
43183;DHT22;28802;38.578;-0.066;2023-06-22T05:01:57;22.90;99.90
43183;DHT22;28802;38.578;-0.066;2023-06-22T05:04:24;22.90;99.90
43183;DHT22;28802;38.578;-0.066;2023-06-22T05:06:51;22.90;99.90
43183;DHT22;28802;38.578;-0.066;2023-06-22T05:09:18;22.90;99.90
43183;DHT22;28802;38.578;-0.066;2023-06-22T05:11:45;23.00;99.90
43183;DHT22;28802;38.578;-0.066;2023-06-22T05:14:12;23.00;99.90
43183;DHT22;28802;38.578;-0.066;2023-06-22T05:16:38;23.10;99.90
43183;DHT22;28802;38.578;-0.066;2023-06-22T05:19:04;23.20;99.90
43183;DHT22;28802;38.578;-0.066;2023-06-22T05:21:31;23.30;99.90
43183;DHT22;28802;38.578;-0.066;2023-06-22T05:23:57;23.20;99.90
43183;DHT22;28802;38.578;-0.066;2023-06-22T05:26:29;23.30;99.90
43183;DHT22;28802;38.578;-0.066;2023-06-22T05:28:56;23.30;99.90
43183;DHT22;28802;38.578;-0.066;2023-06-22T05:31:22;23.40;99.90
43183;DHT22;28802;38.578;-0.066;2023-06-22T05:33:50;23.40;99.90
43183;DHT22;28802;38.578;-0.066;2023-06-22T05:36:17;23.60;99.90
43183;DHT22;28802;38.578;-0.066;2023-06-22T05:38:45;23.50;99.90
43183;DHT22;28802;38.578;-0.066;2023-06-22T05:41:12;23.60;99.90
43183;DHT22;28802;38.578;-0.066;2023-06-22T05:43:40;23.70;99.90
43183;DHT22;28802;38.578;-0.066;2023-06-22T05:46:06;23.80;99.90
43183;DHT22;28802;38.578;-0.066;2023-06-22T05:48:32;24.00;99.90
43183;DHT22;28802;38.578;-0.066;2023-06-22T05:50:58;24.40;99.90
43183;DHT22;28802;38.578;-0.066;2023-06-22T05:53:24;24.90;99.90
43183;DHT22;28802;38.578;-0.066;2023-06-22T05:55:50;25.40;99.90
43183;DHT22;28802;38.578;-0.066;2023-06-22T05:58:16;25.70;99.90
43183;DHT22;28802;38.578;-0.066;2023-06-22T06:00:42;25.90;99.90
43183;DHT22;28802;38.578;-0.066;2023-06-22T06:03:10;26.00;99.90
43183;DHT22;28802;38.578;-0.066;2023-06-22T06:05:36;26.30;99.90
43183;DHT22;28802;38.578;-0.066;2023-06-22T06:08:05;26.50;99.90
43183;DHT22;28802;38.578;-0.066;2023-06-22T06:10:33;26.50;99.90
43183;DHT22;28802;38.578;-0.066;2023-06-22T06:12:59;26.60;99.90
43183;DHT22;28802;38.578;-0.066;2023-06-22T06:15:28;26.90;99.90
43183;DHT22;28802;38.578;-0.066;2023-06-22T06:17:54;27.10;99.90
43183;DHT22;28802;38.578;-0.066;2023-06-22T06:20:23;27.40;99.90
43183;DHT22;28802;38.578;-0.066;2023-06-22T06:22:49;27.40;99.90
43183;DHT22;28802;38.578;-0.066;2023-06-22T06:25:16;27.80;99.90
43183;DHT22;28802;38.578;-0.066;2023-06-22T06:27:48;28.20;99.90
43183;DHT22;28802;38.578;-0.066;2023-06-22T06:30:16;28.30;99.90
43183;DHT22;28802;38.578;-0.066;2023-06-22T06:32:44;28.50;99.90
43183;DHT22;28802;38.578;-0.066;2023-06-22T06:35:12;28.60;99.90
43183;DHT22;28802;38.578;-0.066;2023-06-22T06:37:40;28.70;99.90
43183;DHT22;28802;38.578;-0.066;2023-06-22T06:40:08;28.60;99.90
43183;DHT22;28802;38.578;-0.066;2023-06-22T06:42:37;28.80;99.90
43183;DHT22;28802;38.578;-0.066;2023-06-22T06:45:05;29.30;99.90
43183;DHT22;28802;38.578;-0.066;2023-06-22T06:47:31;28.90;99.90
43183;DHT22;28802;38.578;-0.066;2023-06-22T06:49:57;28.30;99.90
43183;DHT22;28802;38.578;-0.066;2023-06-22T06:52:23;27.80;99.90
43183;DHT22;28802;38.578;-0.066;2023-06-22T06:54:48;27.10;99.90
43183;DHT22;28802;38.578;-0.066;2023-06-22T06:57:14;27.10;99.90
43183;DHT22;28802;38.578;-0.066;2023-06-22T06:59:41;27.60;99.90
43183;DHT22;28802;38.578;-0.066;2023-06-22T07:02:07;27.50;99.90
43183;DHT22;28802;38.578;-0.066;2023-06-22T07:04:33;27.50;99.90
43183;DHT22;28802;38.578;-0.066;2023-06-22T07:07:01;28.10;99.90
43183;DHT22;28802;38.578;-0.066;2023-06-22T07:09:28;28.30;99.90
43183;DHT22;28802;38.578;-0.066;2023-06-22T07:11:54;28.60;99.90
43183;DHT22;28802;38.578;-0.066;2023-06-22T07:14:20;29.10;99.90
43183;DHT22;28802;38.578;-0.066;2023-06-22T07:16:46;29.30;99.90
43183;DHT22;28802;38.578;-0.066;2023-06-22T07:19:12;29.40;99.90
43183;DHT22;28802;38.578;-0.066;2023-06-22T07:21:40;29.30;99.90
43183;DHT22;28802;38.578;-0.066;2023-06-22T07:24:07;29.70;99.90
43183;DHT22;28802;38.578;-0.066;2023-06-22T07:26:33;29.30;99.90
43183;DHT22;28802;38.578;-0.066;2023-06-22T07:28:59;28.40;99.90
43183;DHT22;28802;38.578;-0.066;2023-06-22T07:31:26;27.50;99.90
43183;DHT22;28802;38.578;-0.066;2023-06-22T07:33:52;27.10;99.90
43183;DHT22;28802;38.578;-0.066;2023-06-22T07:36:18;26.70;99.90
43183;DHT22;28802;38.578;-0.066;2023-06-22T07:38:44;26.90;99.90
43183;DHT22;28802;38.578;-0.066;2023-06-22T07:41:10;27.30;99.90
43183;DHT22;28802;38.578;-0.066;2023-06-22T07:43:36;27.50;99.90
43183;DHT22;28802;38.578;-0.066;2023-06-22T07:46:03;27.70;99.90
43183;DHT22;28802;38.578;-0.066;2023-06-22T07:48:29;27.70;99.90
43183;DHT22;28802;38.578;-0.066;2023-06-22T07:50:55;27.50;99.90
43183;DHT22;28802;38.578;-0.066;2023-06-22T07:53:22;27.40;99.90
43183;DHT22;28802;38.578;-0.066;2023-06-22T07:55:49;27.70;99.90
43183;DHT22;28802;38.578;-0.066;2023-06-22T07:58:15;27.90;99.90
43183;DHT22;28802;38.578;-0.066;2023-06-22T08:00:41;27.40;99.90
43183;DHT22;28802;38.578;-0.066;2023-06-22T08:03:07;27.20;99.90
43183;DHT22;28802;38.578;-0.066;2023-06-22T08:05:33;27.30;99.90
43183;DHT22;28802;38.578;-0.066;2023-06-22T08:20:31;27.10;99.90
43183;DHT22;28802;38.578;-0.066;2023-06-22T08:22:58;28.70;99.90
43183;DHT22;28802;38.578;-0.066;2023-06-22T08:25:30;28.40;99.90
43183;DHT22;28802;38.578;-0.066;2023-06-22T08:27:56;28.20;99.90
43183;DHT22;28802;38.578;-0.066;2023-06-22T08:30:22;28.20;99.90
43183;DHT22;28802;38.578;-0.066;2023-06-22T08:32:48;28.00;99.90
43183;DHT22;28802;38.578;-0.066;2023-06-22T08:35:14;28.10;99.90
43183;DHT22;28802;38.578;-0.066;2023-06-22T08:37:40;28.40;99.90
43183;DHT22;28802;38.578;-0.066;2023-06-22T08:40:08;28.40;99.90
43183;DHT22;28802;38.578;-0.066;2023-06-22T08:42:35;28.20;99.90
43183;DHT22;28802;38.578;-0.066;2023-06-22T08:45:01;28.40;99.90
43183;DHT22;28802;38.578;-0.066;2023-06-22T08:47:28;28.50;99.90
43183;DHT22;28802;38.578;-0.066;2023-06-22T08:49:54;28.80;99.90
43183;DHT22;28802;38.578;-0.066;2023-06-22T08:52:20;29.10;99.90
43183;DHT22;28802;38.578;-0.066;2023-06-22T08:54:47;29.40;99.90
43183;DHT22;28802;38.578;-0.066;2023-06-22T08:57:13;29.20;99.90
43183;DHT22;28802;38.578;-0.066;2023-06-22T08:59:39;28.90;99.90
43183;DHT22;28802;38.578;-0.066;2023-06-22T09:02:06;28.60;99.90
43183;DHT22;28802;38.578;-0.066;2023-06-22T09:04:31;28.10;99.90
43183;DHT22;28802;38.578;-0.066;2023-06-22T09:07:03;27.70;99.90
43183;DHT22;28802;38.578;-0.066;2023-06-22T09:09:29;27.90;99.90
43183;DHT22;28802;38.578;-0.066;2023-06-22T09:11:55;28.20;99.90
43183;DHT22;28802;38.578;-0.066;2023-06-22T09:14:21;28.10;99.90
43183;DHT22;28802;38.578;-0.066;2023-06-22T09:16:47;28.00;99.90
43183;DHT22;28802;38.578;-0.066;2023-06-22T09:19:13;28.50;99.90
43183;DHT22;28802;38.578;-0.066;2023-06-22T09:21:39;28.80;99.90
43183;DHT22;28802;38.578;-0.066;2023-06-22T09:24:05;28.60;99.90
43183;DHT22;28802;38.578;-0.066;2023-06-22T09:26:31;29.10;99.90
43183;DHT22;28802;38.578;-0.066;2023-06-22T09:28:57;29.50;99.90
43183;DHT22;28802;38.578;-0.066;2023-06-22T09:31:23;28.80;99.90
43183;DHT22;28802;38.578;-0.066;2023-06-22T09:33:52;27.90;99.90
43183;DHT22;28802;38.578;-0.066;2023-06-22T09:36:20;28.00;99.90
43183;DHT22;28802;38.578;-0.066;2023-06-22T09:38:46;27.90;99.90
43183;DHT22;28802;38.578;-0.066;2023-06-22T09:41:12;27.90;99.90
43183;DHT22;28802;38.578;-0.066;2023-06-22T09:43:37;28.10;99.90
43183;DHT22;28802;38.578;-0.066;2023-06-22T09:46:03;28.10;99.90
43183;DHT22;28802;38.578;-0.066;2023-06-22T09:48:29;28.00;99.90
43183;DHT22;28802;38.578;-0.066;2023-06-22T09:50:56;28.30;99.90
43183;DHT22;28802;38.578;-0.066;2023-06-22T09:53:22;28.00;99.90
43183;DHT22;28802;38.578;-0.066;2023-06-22T09:55:48;27.80;99.90
43183;DHT22;28802;38.578;-0.066;2023-06-22T09:58:14;28.30;99.90
43183;DHT22;28802;38.578;-0.066;2023-06-22T10:00:40;28.90;99.90
43183;DHT22;28802;38.578;-0.066;2023-06-22T10:03:07;29.00;99.90
43183;DHT22;28802;38.578;-0.066;2023-06-22T10:05:33;28.60;99.90
43183;DHT22;28802;38.578;-0.066;2023-06-22T10:07:59;28.30;99.90
43183;DHT22;28802;38.578;-0.066;2023-06-22T10:10:25;28.10;99.90
43183;DHT22;28802;38.578;-0.066;2023-06-22T10:13:01;27.90;99.90
43183;DHT22;28802;38.578;-0.066;2023-06-22T10:15:28;28.20;99.90
43183;DHT22;28802;38.578;-0.066;2023-06-22T10:17:54;28.10;99.90
43183;DHT22;28802;38.578;-0.066;2023-06-22T10:20:20;28.40;99.90
43183;DHT22;28802;38.578;-0.066;2023-06-22T10:22:47;28.50;99.90
43183;DHT22;28802;38.578;-0.066;2023-06-22T10:25:13;28.60;99.90
43183;DHT22;28802;38.578;-0.066;2023-06-22T10:27:39;29.00;99.90
43183;DHT22;28802;38.578;-0.066;2023-06-22T10:30:07;29.10;99.90
43183;DHT22;28802;38.578;-0.066;2023-06-22T10:32:33;28.80;99.90
43183;DHT22;28802;38.578;-0.066;2023-06-22T10:34:59;28.80;99.90
43183;DHT22;28802;38.578;-0.066;2023-06-22T10:37:24;28.60;99.90
43183;DHT22;28802;38.578;-0.066;2023-06-22T10:39:50;28.40;99.90
43183;DHT22;28802;38.578;-0.066;2023-06-22T10:42:16;28.40;99.90
43183;DHT22;28802;38.578;-0.066;2023-06-22T10:44:42;28.40;99.90
43183;DHT22;28802;38.578;-0.066;2023-06-22T10:47:10;28.40;99.90
43183;DHT22;28802;38.578;-0.066;2023-06-22T10:49:40;28.40;99.90
43183;DHT22;28802;38.578;-0.066;2023-06-22T10:52:07;28.40;99.90
43183;DHT22;28802;38.578;-0.066;2023-06-22T10:54:34;28.50;99.90
43183;DHT22;28802;38.578;-0.066;2023-06-22T10:57:01;28.50;99.90
43183;DHT22;28802;38.578;-0.066;2023-06-22T10:59:27;28.80;99.90
43183;DHT22;28802;38.578;-0.066;2023-06-22T11:01:55;28.90;99.90
43183;DHT22;28802;38.578;-0.066;2023-06-22T11:04:21;28.90;99.90
43183;DHT22;28802;38.578;-0.066;2023-06-22T11:06:48;28.80;99.90
43183;DHT22;28802;38.578;-0.066;2023-06-22T11:09:15;28.70;99.90
43183;DHT22;28802;38.578;-0.066;2023-06-22T11:11:49;28.90;99.90
43183;DHT22;28802;38.578;-0.066;2023-06-22T11:14:15;29.10;99.90
43183;DHT22;28802;38.578;-0.066;2023-06-22T11:16:41;29.30;99.90
43183;DHT22;28802;38.578;-0.066;2023-06-22T11:19:08;29.10;99.90
43183;DHT22;28802;38.578;-0.066;2023-06-22T11:21:33;28.80;99.90
43183;DHT22;28802;38.578;-0.066;2023-06-22T11:24:00;28.50;99.90
43183;DHT22;28802;38.578;-0.066;2023-06-22T11:26:26;28.50;99.90
43183;DHT22;28802;38.578;-0.066;2023-06-22T11:28:54;28.40;99.90
43183;DHT22;28802;38.578;-0.066;2023-06-22T11:31:20;28.50;99.90
43183;DHT22;28802;38.578;-0.066;2023-06-22T11:33:46;28.60;99.90
43183;DHT22;28802;38.578;-0.066;2023-06-22T11:36:13;28.50;99.90
43183;DHT22;28802;38.578;-0.066;2023-06-22T11:38:40;28.80;99.90
43183;DHT22;28802;38.578;-0.066;2023-06-22T11:41:06;29.60;99.90
43183;DHT22;28802;38.578;-0.066;2023-06-22T11:43:32;30.10;99.90
43183;DHT22;28802;38.578;-0.066;2023-06-22T11:45:58;29.00;99.90
43183;DHT22;28802;38.578;-0.066;2023-06-22T11:48:25;28.90;99.90
43183;DHT22;28802;38.578;-0.066;2023-06-22T11:50:51;28.60;99.90
43183;DHT22;28802;38.578;-0.066;2023-06-22T11:53:16;28.40;99.90
43183;DHT22;28802;38.578;-0.066;2023-06-22T11:55:43;28.70;99.90
43183;DHT22;28802;38.578;-0.066;2023-06-22T11:58:10;28.60;99.90
43183;DHT22;28802;38.578;-0.066;2023-06-22T12:00:37;28.90;99.90
43183;DHT22;28802;38.578;-0.066;2023-06-22T12:03:03;28.80;99.90
43183;DHT22;28802;38.578;-0.066;2023-06-22T12:05:29;28.80;99.90
43183;DHT22;28802;38.578;-0.066;2023-06-22T12:07:55;28.60;99.90
43183;DHT22;28802;38.578;-0.066;2023-06-22T12:10:23;28.70;99.90
43183;DHT22;28802;38.578;-0.066;2023-06-22T12:12:49;28.60;99.90
43183;DHT22;28802;38.578;-0.066;2023-06-22T12:15:15;28.90;99.90
43183;DHT22;28802;38.578;-0.066;2023-06-22T12:17:41;29.60;99.90
43183;DHT22;28802;38.578;-0.066;2023-06-22T12:20:07;29.20;99.90
43183;DHT22;28802;38.578;-0.066;2023-06-22T12:22:34;28.40;99.90
43183;DHT22;28802;38.578;-0.066;2023-06-22T12:25:00;27.80;99.90
43183;DHT22;28802;38.578;-0.066;2023-06-22T12:27:27;27.50;99.90
43183;DHT22;28802;38.578;-0.066;2023-06-22T12:29:52;27.50;99.90
43183;DHT22;28802;38.578;-0.066;2023-06-22T12:32:18;27.10;99.90
43183;DHT22;28802;38.578;-0.066;2023-06-22T12:34:45;27.00;99.90
43183;DHT22;28802;38.578;-0.066;2023-06-22T12:37:11;26.80;99.90
43183;DHT22;28802;38.578;-0.066;2023-06-22T12:39:37;26.80;99.90
43183;DHT22;28802;38.578;-0.066;2023-06-22T12:42:02;26.90;99.90
43183;DHT22;28802;38.578;-0.066;2023-06-22T12:44:28;27.00;99.90
43183;DHT22;28802;38.578;-0.066;2023-06-22T12:46:54;26.80;99.90
43183;DHT22;28802;38.578;-0.066;2023-06-22T12:49:20;26.80;99.90
43183;DHT22;28802;38.578;-0.066;2023-06-22T12:51:46;26.60;99.90
43183;DHT22;28802;38.578;-0.066;2023-06-22T12:54:12;26.70;99.90
43183;DHT22;28802;38.578;-0.066;2023-06-22T12:56:38;26.60;99.90
43183;DHT22;28802;38.578;-0.066;2023-06-22T12:59:04;26.60;99.90
43183;DHT22;28802;38.578;-0.066;2023-06-22T13:01:32;26.40;99.90
43183;DHT22;28802;38.578;-0.066;2023-06-22T13:03:58;26.30;99.90
43183;DHT22;28802;38.578;-0.066;2023-06-22T13:06:24;26.30;99.90
43183;DHT22;28802;38.578;-0.066;2023-06-22T13:08:50;26.30;99.90
43183;DHT22;28802;38.578;-0.066;2023-06-22T13:11:16;26.50;99.90
43183;DHT22;28802;38.578;-0.066;2023-06-22T13:13:44;26.60;99.90
43183;DHT22;28802;38.578;-0.066;2023-06-22T13:16:10;26.60;99.90
43183;DHT22;28802;38.578;-0.066;2023-06-22T13:18:36;26.60;99.90
43183;DHT22;28802;38.578;-0.066;2023-06-22T13:21:03;26.40;99.90
43183;DHT22;28802;38.578;-0.066;2023-06-22T13:23:29;26.50;99.90
43183;DHT22;28802;38.578;-0.066;2023-06-22T13:25:55;26.50;99.90
43183;DHT22;28802;38.578;-0.066;2023-06-22T13:28:21;26.40;99.90
43183;DHT22;28802;38.578;-0.066;2023-06-22T13:30:47;26.70;99.90
43183;DHT22;28802;38.578;-0.066;2023-06-22T13:33:14;26.70;99.90
43183;DHT22;28802;38.578;-0.066;2023-06-22T13:35:40;26.60;99.90
43183;DHT22;28802;38.578;-0.066;2023-06-22T13:38:09;26.60;99.90
43183;DHT22;28802;38.578;-0.066;2023-06-22T13:40:35;26.90;99.90
43183;DHT22;28802;38.578;-0.066;2023-06-22T13:43:01;27.00;99.90
43183;DHT22;28802;38.578;-0.066;2023-06-22T13:45:27;26.90;99.90
43183;DHT22;28802;38.578;-0.066;2023-06-22T13:47:53;26.80;99.90
43183;DHT22;28802;38.578;-0.066;2023-06-22T13:50:19;27.10;99.90
43183;DHT22;28802;38.578;-0.066;2023-06-22T13:52:45;27.20;99.90
43183;DHT22;28802;38.578;-0.066;2023-06-22T13:55:11;27.10;99.90
43183;DHT22;28802;38.578;-0.066;2023-06-22T13:57:36;27.00;99.90
43183;DHT22;28802;38.578;-0.066;2023-06-22T14:00:04;27.00;99.90
43183;DHT22;28802;38.578;-0.066;2023-06-22T14:02:38;26.80;99.90
43183;DHT22;28802;38.578;-0.066;2023-06-22T14:05:05;26.70;99.90
43183;DHT22;28802;38.578;-0.066;2023-06-22T14:07:31;26.70;99.90
43183;DHT22;28802;38.578;-0.066;2023-06-22T14:09:57;27.00;99.90
43183;DHT22;28802;38.578;-0.066;2023-06-22T14:12:24;27.00;99.90
43183;DHT22;28802;38.578;-0.066;2023-06-22T14:14:50;27.00;99.90
43183;DHT22;28802;38.578;-0.066;2023-06-22T14:17:16;27.00;99.90
43183;DHT22;28802;38.578;-0.066;2023-06-22T14:19:42;26.90;99.90
43183;DHT22;28802;38.578;-0.066;2023-06-22T14:22:07;26.70;99.90
43183;DHT22;28802;38.578;-0.066;2023-06-22T14:24:33;26.60;99.90
43183;DHT22;28802;38.578;-0.066;2023-06-22T14:26:59;26.60;99.90
43183;DHT22;28802;38.578;-0.066;2023-06-22T14:29:28;26.50;99.90
43183;DHT22;28802;38.578;-0.066;2023-06-22T14:31:54;26.60;99.90
43183;DHT22;28802;38.578;-0.066;2023-06-22T14:34:19;26.70;99.90
43183;DHT22;28802;38.578;-0.066;2023-06-22T14:36:45;26.60;99.90
43183;DHT22;28802;38.578;-0.066;2023-06-22T14:39:11;26.80;99.90
43183;DHT22;28802;38.578;-0.066;2023-06-22T14:41:37;27.50;99.90
43183;DHT22;28802;38.578;-0.066;2023-06-22T14:44:03;27.90;99.90
43183;DHT22;28802;38.578;-0.066;2023-06-22T14:46:29;28.10;99.90
43183;DHT22;28802;38.578;-0.066;2023-06-22T14:48:55;28.10;99.90
43183;DHT22;28802;38.578;-0.066;2023-06-22T14:51:21;28.20;99.90
43183;DHT22;28802;38.578;-0.066;2023-06-22T14:53:46;28.30;99.90
43183;DHT22;28802;38.578;-0.066;2023-06-22T14:56:13;28.30;99.90
43183;DHT22;28802;38.578;-0.066;2023-06-22T14:58:41;28.40;99.90
43183;DHT22;28802;38.578;-0.066;2023-06-22T15:01:11;28.20;99.90
43183;DHT22;28802;38.578;-0.066;2023-06-22T15:03:37;28.30;99.90
43183;DHT22;28802;38.578;-0.066;2023-06-22T15:06:04;28.30;99.90
43183;DHT22;28802;38.578;-0.066;2023-06-22T15:08:30;28.20;99.90
43183;DHT22;28802;38.578;-0.066;2023-06-22T15:10:59;28.30;99.90
43183;DHT22;28802;38.578;-0.066;2023-06-22T15:13:27;28.50;99.90
43183;DHT22;28802;38.578;-0.066;2023-06-22T15:15:55;28.60;99.90
43183;DHT22;28802;38.578;-0.066;2023-06-22T15:18:21;28.60;99.90
43183;DHT22;28802;38.578;-0.066;2023-06-22T15:20:47;28.60;99.90
43183;DHT22;28802;38.578;-0.066;2023-06-22T15:23:13;28.80;99.90
43183;DHT22;28802;38.578;-0.066;2023-06-22T15:25:39;28.90;99.90
43183;DHT22;28802;38.578;-0.066;2023-06-22T15:28:05;28.90;99.90
43183;DHT22;28802;38.578;-0.066;2023-06-22T15:30:31;29.00;99.90
43183;DHT22;28802;38.578;-0.066;2023-06-22T15:32:57;29.10;99.90